createdAt,value
2018-08-09T00:00:39.391Z,24.02
2018-08-09T00:01:39.886Z,23.99
2018-08-09T00:02:39.660Z,23.96
2018-08-09T00:03:39.652Z,23.91
2018-08-09T00:04:39.146Z,23.92
2018-08-09T00:05:39.420Z,23.78
2018-08-09T00:06:39.418Z,23.93
2018-08-09T00:07:39.150Z,23.78
2018-08-09T00:08:39.694Z,23.8
2018-08-09T00:09:39.681Z,23.77
2018-08-09T00:10:39.168Z,23.8
2018-08-09T00:11:39.429Z,23.81
2018-08-09T00:12:39.682Z,23.8
2018-08-09T00:13:39.712Z,23.74
2018-08-09T00:14:39.431Z,23.78
2018-08-09T00:15:39.437Z,23.8
2018-08-09T00:16:39.440Z,23.78
2018-08-09T00:17:39.693Z,23.8
2018-08-09T00:18:39.455Z,23.77
2018-08-09T00:19:39.198Z,23.73
2018-08-09T00:20:39.715Z,23.69
2018-08-09T00:21:39.712Z,23.73
2018-08-09T00:22:39.454Z,23.69
2018-08-09T00:23:39.261Z,23.69
2018-08-09T00:24:39.740Z,23.69
2018-08-09T00:25:39.725Z,23.74
2018-08-09T00:26:39.752Z,23.78
2018-08-09T00:27:39.484Z,23.76
2018-08-09T00:28:39.743Z,23.76
2018-08-09T00:29:39.761Z,23.81
2018-08-09T00:30:39.494Z,23.81
2018-08-09T00:31:39.241Z,23.84
2018-08-09T00:32:39.506Z,23.78
2018-08-09T00:33:39.495Z,23.83
2018-08-09T00:34:39.267Z,23.83
2018-08-09T00:35:39.512Z,23.77
2018-08-09T00:36:39.503Z,23.81
2018-08-09T00:37:39.762Z,23.76
2018-08-09T00:38:39.518Z,23.8
2018-08-09T00:39:39.766Z,23.81
2018-08-09T00:40:39.778Z,23.73
2018-08-09T00:41:39.530Z,23.76
2018-08-09T00:42:39.535Z,23.69
2018-08-09T00:43:39.812Z,23.68
2018-08-09T00:44:39.547Z,23.69
2018-08-09T00:45:39.542Z,23.69
2018-08-09T00:46:39.818Z,23.83
2018-08-09T00:47:39.690Z,23.69
2018-08-09T00:48:39.544Z,23.78
2018-08-09T00:49:39.809Z,23.71
2018-08-09T00:50:39.827Z,23.66
2018-08-09T00:51:39.819Z,23.61
2018-08-09T00:52:39.823Z,23.68
2018-08-09T00:53:39.561Z,23.62
2018-08-09T00:54:39.820Z,23.66
2018-08-09T00:55:39.826Z,23.62
2018-08-09T00:56:39.588Z,23.58
2018-08-09T00:57:39.849Z,23.62
2018-08-09T00:58:39.847Z,23.62
2018-08-09T00:59:39.585Z,23.62
2018-08-09T01:00:39.583Z,23.65
2018-08-09T01:01:39.591Z,23.65
2018-08-09T01:02:39.375Z,23.62
2018-08-09T01:03:39.926Z,23.63
2018-08-09T01:04:39.608Z,23.65
2018-08-09T01:05:39.876Z,23.63
2018-08-09T01:06:39.352Z,23.61
2018-08-09T01:07:39.869Z,23.65
2018-08-09T01:08:39.621Z,23.68
2018-08-09T01:09:39.614Z,23.65
2018-08-09T01:10:39.619Z,23.66
2018-08-09T01:11:39.891Z,23.59
2018-08-09T01:12:39.884Z,23.62
2018-08-09T01:13:39.641Z,23.62
2018-08-09T01:14:39.889Z,23.65
2018-08-09T01:15:39.635Z,23.66
2018-08-09T01:16:39.630Z,23.65
2018-08-09T01:17:40.947Z,23.63
2018-08-09T01:18:39.914Z,23.65
2018-08-09T01:19:39.913Z,23.66
2018-08-09T01:20:39.906Z,23.62
2018-08-09T01:21:39.907Z,23.61
2018-08-09T01:22:39.404Z,23.59
2018-08-09T01:23:39.659Z,23.62
2018-08-09T01:24:39.660Z,23.62
2018-08-09T01:25:39.930Z,23.65
2018-08-09T01:26:39.671Z,23.61
2018-08-09T01:27:39.671Z,23.63
2018-08-09T01:28:39.683Z,23.71
2018-08-09T01:29:39.418Z,23.63
2018-08-09T01:30:39.943Z,23.73
2018-08-09T01:31:39.698Z,23.76
2018-08-09T01:32:39.448Z,23.74
2018-08-09T01:33:39.448Z,23.76
2018-08-09T01:34:39.960Z,23.65
2018-08-09T01:35:39.514Z,23.61
2018-08-09T01:36:39.970Z,23.69
2018-08-09T01:37:39.969Z,23.76
2018-08-09T01:38:39.463Z,23.65
2018-08-09T01:39:39.763Z,23.68
2018-08-09T01:40:39.720Z,23.65
2018-08-09T01:41:39.720Z,23.59
2018-08-09T01:42:39.722Z,23.62
2018-08-09T01:43:39.727Z,23.61
2018-08-09T01:44:39.724Z,23.65
2018-08-09T01:45:39.726Z,23.61
2018-08-09T01:46:39.489Z,23.54
2018-08-09T01:47:39.735Z,23.47
2018-08-09T01:48:39.736Z,23.47
2018-08-09T01:49:39.741Z,23.55
2018-08-09T01:50:39.744Z,23.44
2018-08-09T01:51:39.745Z,23.48
2018-08-09T01:52:40.001Z,23.47
2018-08-09T01:53:40.013Z,23.41
2018-08-09T01:54:40.022Z,23.41
2018-08-09T01:55:40.018Z,23.43
2018-08-09T01:56:39.766Z,23.44
2018-08-09T01:57:39.521Z,23.41
2018-08-09T01:58:40.029Z,23.41
2018-08-09T01:59:39.777Z,23.48
2018-08-09T02:00:39.788Z,23.44
2018-08-09T02:01:40.039Z,23.48
2018-08-09T02:02:40.040Z,23.44
2018-08-09T02:03:40.854Z,23.36
2018-08-09T02:04:40.226Z,23.46
2018-08-09T02:05:40.054Z,23.37
2018-08-09T02:06:39.800Z,23.39
2018-08-09T02:07:40.083Z,23.5
2018-08-09T02:08:39.806Z,23.47
2018-08-09T02:09:40.061Z,23.47
2018-08-09T02:10:40.080Z,23.47
2018-08-09T02:11:39.910Z,23.47
2018-08-09T02:12:40.079Z,23.46
2018-08-09T02:13:39.590Z,23.43
2018-08-09T02:14:40.073Z,23.37
2018-08-09T02:15:40.101Z,23.43
2018-08-09T02:16:39.833Z,23.44
2018-08-09T02:17:39.579Z,23.37
2018-08-09T02:18:39.824Z,23.37
2018-08-09T02:19:39.834Z,23.32
2018-08-09T02:20:40.098Z,23.37
2018-08-09T02:21:40.094Z,23.32
2018-08-09T02:22:39.869Z,23.37
2018-08-09T02:23:40.106Z,23.36
2018-08-09T02:24:39.851Z,23.32
2018-08-09T02:25:40.123Z,23.28
2018-08-09T02:26:39.601Z,23.18
2018-08-09T02:27:39.867Z,23.18
2018-08-09T02:28:40.123Z,23.17
2018-08-09T02:29:40.115Z,23.13
2018-08-09T02:30:40.140Z,23.09
2018-08-09T02:31:39.883Z,23.13
2018-08-09T02:32:40.136Z,23.12
2018-08-09T02:33:40.137Z,23.05
2018-08-09T02:34:39.882Z,23.03
2018-08-09T02:35:40.154Z,22.96
2018-08-09T02:36:40.155Z,22.99
2018-08-09T02:37:40.187Z,22.85
2018-08-09T02:38:40.167Z,22.81
2018-08-09T02:39:40.166Z,22.96
2018-08-09T02:40:40.155Z,23
2018-08-09T02:41:39.918Z,23.02
2018-08-09T02:42:40.160Z,23.05
2018-08-09T02:43:39.914Z,23.08
2018-08-09T02:44:40.171Z,22.94
2018-08-09T02:45:39.914Z,22.94
2018-08-09T02:46:40.333Z,22.98
2018-08-09T02:47:40.190Z,22.91
2018-08-09T02:48:41.030Z,22.85
2018-08-09T02:49:39.926Z,22.8
2018-08-09T02:50:40.185Z,22.8
2018-08-09T02:51:39.932Z,22.68
2018-08-09T02:52:40.181Z,22.75
2018-08-09T02:53:40.193Z,22.8
2018-08-09T02:54:39.948Z,22.8
2018-08-09T02:55:40.207Z,22.81
2018-08-09T02:56:40.224Z,22.81
2018-08-09T02:57:39.689Z,22.78
2018-08-09T02:58:40.213Z,22.87
2018-08-09T02:59:40.217Z,22.88
2018-08-09T03:00:39.783Z,22.84
2018-08-09T03:01:39.984Z,22.84
2018-08-09T03:02:40.243Z,22.76
2018-08-09T03:03:40.225Z,22.81
2018-08-09T03:04:40.220Z,22.83
2018-08-09T03:05:40.007Z,22.84
2018-08-09T03:06:40.231Z,22.73
2018-08-09T03:07:40.231Z,22.8
2018-08-09T03:08:40.000Z,22.76
2018-08-09T03:09:40.245Z,22.8
2018-08-09T03:10:39.996Z,22.76
2018-08-09T03:11:39.999Z,22.73
2018-08-09T03:12:40.241Z,22.73
2018-08-09T03:13:40.244Z,22.76
2018-08-09T03:14:40.243Z,22.8
2018-08-09T03:15:40.248Z,22.73
2018-08-09T03:16:40.261Z,22.7
2018-08-09T03:17:40.274Z,22.66
2018-08-09T03:18:39.741Z,22.66
2018-08-09T03:19:40.008Z,22.66
2018-08-09T03:20:40.003Z,22.65
2018-08-09T03:21:40.012Z,22.68
2018-08-09T03:22:40.281Z,22.63
2018-08-09T03:23:40.277Z,22.62
2018-08-09T03:24:40.014Z,22.66
2018-08-09T03:25:40.017Z,22.69
2018-08-09T03:26:40.024Z,22.68
2018-08-09T03:27:40.289Z,22.62
2018-08-09T03:28:39.777Z,22.65
2018-08-09T03:29:40.293Z,22.7
2018-08-09T03:30:40.310Z,22.62
2018-08-09T03:31:40.300Z,22.54
2018-08-09T03:32:40.058Z,22.62
2018-08-09T03:33:40.037Z,22.6
2018-08-09T03:34:40.045Z,22.6
2018-08-09T03:35:40.052Z,22.63
2018-08-09T03:36:40.307Z,22.54
2018-08-09T03:37:40.057Z,22.55
2018-08-09T03:38:40.056Z,22.6
2018-08-09T03:39:40.061Z,22.59
2018-08-09T03:40:40.321Z,22.57
2018-08-09T03:41:40.065Z,22.62
2018-08-09T03:42:40.074Z,22.54
2018-08-09T03:43:40.067Z,22.57
2018-08-09T03:44:40.331Z,22.55
2018-08-09T03:45:40.092Z,22.6
2018-08-09T03:46:40.308Z,22.63
2018-08-09T03:47:40.089Z,22.55
2018-08-09T03:48:40.069Z,22.54
2018-08-09T03:49:40.360Z,22.48
2018-08-09T03:50:40.351Z,22.45
2018-08-09T03:51:40.090Z,22.43
2018-08-09T03:52:40.100Z,22.41
2018-08-09T03:53:40.100Z,22.45
2018-08-09T03:54:40.348Z,22.41
2018-08-09T03:55:40.488Z,22.35
2018-08-09T03:56:40.107Z,22.35
2018-08-09T03:57:40.374Z,22.36
2018-08-09T03:58:40.377Z,22.39
2018-08-09T03:59:40.531Z,22.35
2018-08-09T04:00:40.108Z,22.36
2018-08-09T04:01:40.112Z,22.33
2018-08-09T04:02:40.372Z,22.35
2018-08-09T04:03:40.381Z,22.36
2018-08-09T04:04:40.123Z,22.35
2018-08-09T04:05:40.117Z,22.28
2018-08-09T04:06:40.132Z,22.43
2018-08-09T04:07:40.129Z,22.47
2018-08-09T04:08:40.413Z,22.48
2018-08-09T04:09:40.412Z,22.48
2018-08-09T04:10:40.135Z,22.51
2018-08-09T04:11:40.225Z,22.48
2018-08-09T04:12:40.139Z,22.43
2018-08-09T04:13:39.889Z,22.45
2018-08-09T04:14:40.411Z,22.41
2018-08-09T04:15:40.191Z,22.44
2018-08-09T04:16:40.422Z,22.47
2018-08-09T04:17:40.418Z,22.5
2018-08-09T04:18:40.434Z,22.45
2018-08-09T04:19:40.165Z,22.44
2018-08-09T04:20:39.913Z,22.51
2018-08-09T04:21:40.163Z,22.47
2018-08-09T04:22:39.906Z,22.47
2018-08-09T04:23:40.185Z,22.47
2018-08-09T04:24:40.428Z,22.53
2018-08-09T04:25:40.450Z,22.44
2018-08-09T04:26:40.314Z,22.57
2018-08-09T04:27:39.928Z,22.55
2018-08-09T04:28:40.477Z,22.57
2018-08-09T04:29:40.186Z,22.66
2018-08-09T04:30:40.191Z,22.66
2018-08-09T04:31:40.456Z,22.69
2018-08-09T04:32:40.199Z,22.63
2018-08-09T04:33:40.458Z,22.68
2018-08-09T04:34:40.203Z,22.57
2018-08-09T04:35:40.464Z,22.66
2018-08-09T04:36:40.204Z,22.66
2018-08-09T04:37:40.197Z,22.62
2018-08-09T04:38:40.467Z,22.66
2018-08-09T04:39:40.464Z,22.69
2018-08-09T04:40:40.205Z,22.69
2018-08-09T04:41:40.214Z,22.65
2018-08-09T04:42:40.466Z,22.55
2018-08-09T04:43:40.218Z,22.44
2018-08-09T04:44:40.482Z,22.44
2018-08-09T04:45:40.174Z,22.33
2018-08-09T04:46:40.510Z,22.32
2018-08-09T04:47:40.255Z,22.26
2018-08-09T04:48:40.515Z,22.29
2018-08-09T04:49:41.284Z,22.26
2018-08-09T04:50:40.235Z,22.25
2018-08-09T04:51:40.253Z,22.26
2018-08-09T04:52:39.981Z,22.22
2018-08-09T04:53:40.512Z,22.18
2018-08-09T04:54:40.251Z,22.23
2018-08-09T04:55:40.516Z,22.15
2018-08-09T04:56:40.238Z,22.11
2018-08-09T04:57:40.513Z,22.18
2018-08-09T04:58:40.262Z,22.18
2018-08-09T04:59:40.257Z,22.2
2018-08-09T05:00:40.271Z,22.28
2018-08-09T05:01:40.274Z,22.23
2018-08-09T05:02:40.520Z,22.28
2018-08-09T05:03:40.577Z,22.14
2018-08-09T05:04:40.514Z,22.3
2018-08-09T05:05:40.547Z,22.26
2018-08-09T05:06:40.526Z,22.28
2018-08-09T05:07:40.528Z,22.28
2018-08-09T05:08:40.267Z,22.32
2018-08-09T05:09:40.027Z,22.36
2018-08-09T05:10:40.536Z,22.39
2018-08-09T05:11:40.539Z,22.35
2018-08-09T05:12:40.287Z,22.35
2018-08-09T05:13:40.042Z,22.41
2018-08-09T05:14:40.553Z,22.43
2018-08-09T05:15:40.287Z,22.54
2018-08-09T05:16:40.289Z,22.48
2018-08-09T05:17:40.292Z,22.57
2018-08-09T05:18:40.328Z,22.5
2018-08-09T05:19:40.577Z,22.57
2018-08-09T05:20:40.552Z,22.53
2018-08-09T05:21:40.579Z,22.6
2018-08-09T05:22:40.306Z,22.62
2018-08-09T05:23:40.557Z,22.66
2018-08-09T05:24:40.323Z,22.65
2018-08-09T05:25:40.587Z,22.69
2018-08-09T05:26:40.057Z,22.66
2018-08-09T05:27:40.330Z,22.68
2018-08-09T05:28:40.583Z,22.7
2018-08-09T05:29:40.065Z,22.62
2018-08-09T05:30:40.321Z,22.65
2018-08-09T05:31:40.348Z,22.68
2018-08-09T05:32:40.334Z,22.69
2018-08-09T05:33:40.069Z,22.69
2018-08-09T05:34:40.332Z,22.7
2018-08-09T05:35:40.632Z,22.76
2018-08-09T05:36:40.342Z,22.84
2018-08-09T05:37:40.616Z,22.87
2018-08-09T05:38:40.358Z,22.91
2018-08-09T05:39:40.662Z,22.99
2018-08-09T05:40:40.612Z,23.08
2018-08-09T05:41:40.356Z,23.17
2018-08-09T05:42:40.378Z,23.15
2018-08-09T05:43:40.626Z,23.15
2018-08-09T05:44:40.360Z,23.17
2018-08-09T05:45:40.621Z,23.13
2018-08-09T05:46:40.618Z,23.18
2018-08-09T05:47:40.398Z,23.24
2018-08-09T05:48:40.623Z,23.34
2018-08-09T05:49:40.167Z,23.37
2018-08-09T05:50:40.631Z,23.32
2018-08-09T05:51:40.378Z,23.34
2018-08-09T05:52:40.595Z,23.32
2018-08-09T05:53:40.124Z,23.41
2018-08-09T05:54:40.649Z,23.39
2018-08-09T05:55:40.403Z,23.37
2018-08-09T05:56:40.659Z,23.47
2018-08-09T05:57:40.396Z,23.41
2018-08-09T05:58:40.438Z,23.46
2018-08-09T05:59:40.412Z,23.54
2018-08-09T06:00:40.678Z,23.51
2018-08-09T06:01:40.416Z,23.62
2018-08-09T06:02:40.425Z,23.55
2018-08-09T06:03:40.677Z,23.62
2018-08-09T06:04:40.168Z,23.81
2018-08-09T06:05:40.817Z,23.86
2018-08-09T06:06:40.707Z,24.03
2018-08-09T06:07:40.686Z,24.17
2018-08-09T06:08:40.431Z,24.17
2018-08-09T06:09:40.447Z,24.4
2018-08-09T06:10:40.707Z,24.48
2018-08-09T06:11:40.181Z,24.48
2018-08-09T06:12:40.715Z,24.47
2018-08-09T06:13:40.451Z,24.63
2018-08-09T06:14:40.207Z,24.88
2018-08-09T06:15:40.471Z,24.96
2018-08-09T06:16:40.472Z,25.25
2018-08-09T06:17:40.725Z,25.65
2018-08-09T06:18:40.724Z,26.25
2018-08-09T06:19:40.494Z,26.71
2018-08-09T06:20:40.491Z,27.14
2018-08-09T06:21:40.481Z,27.48
2018-08-09T06:22:40.499Z,27.74
2018-08-09T06:23:40.752Z,28.08
2018-08-09T06:24:40.240Z,28.2
2018-08-09T06:25:40.778Z,28.54
2018-08-09T06:26:40.627Z,28.67
2018-08-09T06:27:40.774Z,29.04
2018-08-09T06:28:40.609Z,29.27
2018-08-09T06:29:41.027Z,29.47
2018-08-09T06:30:40.288Z,29.61
2018-08-09T06:31:40.293Z,29.76
2018-08-09T06:32:40.539Z,29.9
2018-08-09T06:33:41.027Z,29.94
2018-08-09T06:34:40.578Z,30.12
2018-08-09T06:35:40.585Z,30.27
2018-08-09T06:36:40.576Z,30.25
2018-08-09T06:37:40.848Z,30.32
2018-08-09T06:38:40.604Z,30.37
2018-08-09T06:39:40.602Z,30.47
2018-08-09T06:40:40.859Z,30.57
2018-08-09T06:41:40.614Z,30.59
2018-08-09T06:42:40.619Z,30.9
2018-08-09T06:43:40.627Z,31.17
2018-08-09T06:44:40.894Z,31.27
2018-08-09T06:45:40.650Z,31.4
2018-08-09T06:46:40.644Z,31.33
2018-08-09T06:47:41.089Z,31.29
2018-08-09T06:48:40.676Z,31.31
2018-08-09T06:49:40.675Z,31.25
2018-08-09T06:50:40.948Z,31.33
2018-08-09T06:51:40.684Z,31.37
2018-08-09T06:52:40.438Z,31.76
2018-08-09T06:53:40.984Z,31.96
2018-08-09T06:54:40.448Z,32.16
2018-08-09T06:55:40.732Z,32.4
2018-08-09T06:56:41.038Z,32.34
2018-08-09T06:57:40.991Z,32.4
2018-08-09T06:58:40.472Z,32.49
2018-08-09T06:59:40.500Z,32.53
2018-08-09T07:00:40.771Z,32.67
2018-08-09T07:01:40.770Z,32.67
2018-08-09T07:02:40.521Z,32.7
2018-08-09T07:03:40.785Z,32.85
2018-08-09T07:04:40.788Z,32.78
2018-08-09T07:05:40.555Z,32.74
2018-08-09T07:06:40.549Z,32.74
2018-08-09T07:07:40.555Z,32.96
2018-08-09T07:08:40.825Z,32.85
2018-08-09T07:09:40.577Z,32.92
2018-08-09T07:10:41.113Z,33.08
2018-08-09T07:11:40.846Z,33.3
2018-08-09T07:12:40.905Z,33.23
2018-08-09T07:13:40.622Z,33.45
2018-08-09T07:14:40.618Z,33.55
2018-08-09T07:15:41.190Z,33.53
2018-08-09T07:16:41.161Z,33.47
2018-08-09T07:17:40.911Z,33.49
2018-08-09T07:18:41.168Z,33.46
2018-08-09T07:19:41.196Z,33.52
2018-08-09T07:20:43.632Z,33.47
2018-08-09T07:21:41.226Z,33.36
2018-08-09T07:22:40.694Z,33.4
2018-08-09T07:23:40.978Z,33.28
2018-08-09T07:24:40.969Z,33.34
2018-08-09T07:25:41.252Z,33.46
2018-08-09T07:26:41.278Z,33.49
2018-08-09T07:27:41.005Z,33.68
2018-08-09T07:28:40.752Z,33.98
2018-08-09T07:29:41.012Z,33.98
2018-08-09T07:30:41.291Z,33.96
2018-08-09T07:31:41.049Z,33.89
2018-08-09T07:32:41.060Z,33.52
2018-08-09T07:33:41.382Z,33.2
2018-08-09T07:34:40.813Z,32.92
2018-08-09T07:35:41.320Z,32.86
2018-08-09T07:36:41.288Z,32.87
2018-08-09T07:37:41.093Z,32.74
2018-08-09T07:38:41.364Z,32.85
2018-08-09T07:39:41.386Z,32.73
2018-08-09T07:40:40.865Z,32.86
2018-08-09T07:41:41.141Z,33.02
2018-08-09T07:42:41.378Z,33.17
2018-08-09T07:43:41.392Z,33.08
2018-08-09T07:44:40.885Z,33.11
2018-08-09T07:45:41.415Z,33.32
2018-08-09T07:46:41.164Z,33.19
2018-08-09T07:47:41.174Z,32.52
2018-08-09T07:48:41.579Z,31.93
2018-08-09T07:49:41.207Z,31.43
2018-08-09T07:50:41.330Z,31.06
2018-08-09T07:51:41.208Z,30.78
2018-08-09T07:52:41.460Z,30.48
2018-08-09T07:53:41.452Z,30.47
2018-08-09T07:54:41.246Z,30.48
2018-08-09T07:55:41.490Z,30.46
2018-08-09T07:56:41.250Z,30.51
2018-08-09T07:57:41.483Z,30.72
2018-08-09T07:58:41.260Z,30.99
2018-08-09T07:59:41.522Z,31.52
2018-08-09T08:00:41.514Z,32.08
2018-08-09T08:01:41.012Z,32.65
2018-08-09T08:02:41.534Z,33.12
2018-08-09T08:03:41.550Z,33.43
2018-08-09T08:04:41.572Z,33.87
2018-08-09T08:05:41.759Z,34.38
2018-08-09T08:06:41.314Z,34.55
2018-08-09T08:07:41.576Z,34.75
2018-08-09T08:08:41.589Z,34.89
2018-08-09T08:09:41.065Z,34.88
2018-08-09T08:10:42.692Z,34.88
2018-08-09T08:11:41.343Z,35.04
2018-08-09T08:12:41.361Z,35.42
2018-08-09T08:13:41.356Z,35.55
2018-08-09T08:14:41.111Z,35.73
2018-08-09T08:15:41.634Z,35.95
2018-08-09T08:16:41.390Z,36.04
2018-08-09T08:17:41.647Z,36.04
2018-08-09T08:18:41.406Z,36.24
2018-08-09T08:19:41.422Z,36.31
2018-08-09T08:20:41.882Z,36.2
2018-08-09T08:21:41.695Z,36.07
2018-08-09T08:22:41.438Z,36.14
2018-08-09T08:23:41.464Z,36.07
2018-08-09T08:24:41.476Z,36.18
2018-08-09T08:25:41.205Z,36.09
2018-08-09T08:26:41.781Z,36.14
2018-08-09T08:27:41.506Z,36.12
2018-08-09T08:28:41.752Z,36.08
2018-08-09T08:29:41.498Z,36.14
2018-08-09T08:30:41.512Z,36.25
2018-08-09T08:31:41.518Z,36.54
2018-08-09T08:32:41.801Z,36.72
2018-08-09T08:33:41.557Z,36.8
2018-08-09T08:34:41.969Z,36.62
2018-08-09T08:35:41.814Z,36.47
2018-08-09T08:36:41.832Z,36.43
2018-08-09T08:37:41.571Z,36.25
2018-08-09T08:38:41.836Z,36.33
2018-08-09T08:39:41.847Z,36.4
2018-08-09T08:40:41.868Z,36.47
2018-08-09T08:41:41.906Z,36.43
2018-08-09T08:42:41.629Z,36.54
2018-08-09T08:43:41.894Z,36.59
2018-08-09T08:44:41.909Z,36.46
2018-08-09T08:45:41.408Z,36.36
2018-08-09T08:46:41.936Z,36.4
2018-08-09T08:47:41.935Z,36.18
2018-08-09T08:48:41.696Z,35.93
2018-08-09T08:49:41.702Z,35.64
2018-08-09T08:50:41.709Z,34.92
2018-08-09T08:51:41.981Z,34.24
2018-08-09T08:52:41.996Z,33.59
2018-08-09T08:53:41.481Z,33.17
2018-08-09T08:54:42.023Z,32.87
2018-08-09T08:55:42.021Z,32.56
2018-08-09T08:56:42.042Z,32.27
2018-08-09T08:57:41.772Z,32.23
2018-08-09T08:58:41.536Z,32.11
2018-08-09T08:59:42.062Z,31.93
2018-08-09T09:00:41.798Z,31.78
2018-08-09T09:01:42.064Z,31.76
2018-08-09T09:02:41.589Z,31.73
2018-08-09T09:03:41.838Z,31.89
2018-08-09T09:04:41.846Z,31.64
2018-08-09T09:05:42.135Z,31.61
2018-08-09T09:06:41.852Z,31.54
2018-08-09T09:07:41.860Z,31.42
2018-08-09T09:08:42.125Z,31.52
2018-08-09T09:09:41.882Z,31.47
2018-08-09T09:10:42.144Z,31.37
2018-08-09T09:11:42.163Z,31.47
2018-08-09T09:12:42.163Z,31.52
2018-08-09T09:13:42.245Z,31.62
2018-08-09T09:14:42.189Z,31.73
2018-08-09T09:15:41.949Z,31.84
2018-08-09T09:16:42.190Z,31.93
2018-08-09T09:17:41.937Z,31.8
2018-08-09T09:18:41.957Z,31.93
2018-08-09T09:19:42.207Z,31.87
2018-08-09T09:20:42.228Z,31.87
2018-08-09T09:21:42.217Z,31.84
2018-08-09T09:22:42.229Z,31.76
2018-08-09T09:23:42.246Z,31.8
2018-08-09T09:24:42.242Z,31.85
2018-08-09T09:25:41.989Z,31.81
2018-08-09T09:26:42.249Z,31.96
2018-08-09T09:27:42.257Z,31.99
2018-08-09T09:28:42.266Z,32.01
2018-08-09T09:29:42.275Z,31.93
2018-08-09T09:30:42.284Z,32.12
2018-08-09T09:31:42.033Z,32.11
2018-08-09T09:32:42.298Z,32.19
2018-08-09T09:33:42.040Z,32.19
2018-08-09T09:34:42.307Z,32.12
2018-08-09T09:35:41.797Z,32
2018-08-09T09:36:42.071Z,31.96
2018-08-09T09:37:42.329Z,31.87
2018-08-09T09:38:42.335Z,31.99
2018-08-09T09:39:42.349Z,32.08
2018-08-09T09:40:42.359Z,32.07
2018-08-09T09:41:42.097Z,31.97
2018-08-09T09:42:42.359Z,31.94
2018-08-09T09:43:42.364Z,31.84
2018-08-09T09:44:42.369Z,31.78
2018-08-09T09:45:42.139Z,31.84
2018-08-09T09:46:42.382Z,31.85
2018-08-09T09:47:42.385Z,31.9
2018-08-09T09:48:42.141Z,31.92
2018-08-09T09:49:42.501Z,31.77
2018-08-09T09:50:42.159Z,31.66
2018-08-09T09:51:42.593Z,31.7
2018-08-09T09:52:42.414Z,31.61
2018-08-09T09:53:42.178Z,31.47
2018-08-09T09:54:42.436Z,31.43
2018-08-09T09:55:42.440Z,31.33
2018-08-09T09:56:42.190Z,31.34
2018-08-09T09:57:42.462Z,31.51
2018-08-09T09:58:42.207Z,31.42
2018-08-09T09:59:42.225Z,31.4
2018-08-09T10:00:41.966Z,31.43
2018-08-09T10:01:42.302Z,31.51
2018-08-09T10:02:42.239Z,31.66
2018-08-09T10:03:42.233Z,31.77
2018-08-09T10:04:42.504Z,31.9
2018-08-09T10:05:42.249Z,32.07
2018-08-09T10:06:42.252Z,32.14
2018-08-09T10:07:42.264Z,32.09
2018-08-09T10:08:42.282Z,32.09
2018-08-09T10:09:42.274Z,32.04
2018-08-09T10:10:42.278Z,32.12
2018-08-09T10:11:42.565Z,32.11
2018-08-09T10:12:42.624Z,32.12
2018-08-09T10:13:42.560Z,32.12
2018-08-09T10:14:42.363Z,32.18
2018-08-09T10:15:42.320Z,32.19
2018-08-09T10:16:43.128Z,32.27
2018-08-09T10:17:42.343Z,32.3
2018-08-09T10:18:42.585Z,32.34
2018-08-09T10:19:42.677Z,32.37
2018-08-09T10:20:42.090Z,32.41
2018-08-09T10:21:42.677Z,32.4
2018-08-09T10:22:42.619Z,32.45
2018-08-09T10:23:42.397Z,32.41
2018-08-09T10:24:42.639Z,32.37
2018-08-09T10:25:42.636Z,32.22
2018-08-09T10:26:42.645Z,32.16
2018-08-09T10:27:42.736Z,32.09
2018-08-09T10:28:42.411Z,32
2018-08-09T10:29:42.410Z,31.93
2018-08-09T10:30:42.672Z,31.92
2018-08-09T10:31:43.247Z,32
2018-08-09T10:32:42.675Z,31.97
2018-08-09T10:33:42.682Z,31.93
2018-08-09T10:34:42.800Z,31.92
2018-08-09T10:35:42.814Z,31.89
2018-08-09T10:36:42.194Z,31.97
2018-08-09T10:37:42.510Z,32.08
2018-08-09T10:38:42.214Z,32.18
2018-08-09T10:39:42.477Z,32.22
2018-08-09T10:40:42.744Z,32.41
2018-08-09T10:41:42.840Z,32.52
2018-08-09T10:42:42.888Z,32.74
2018-08-09T10:43:42.243Z,32.83
2018-08-09T10:44:42.258Z,32.83
2018-08-09T10:45:42.519Z,32.9
2018-08-09T10:46:42.544Z,32.92
2018-08-09T10:47:42.552Z,32.86
2018-08-09T10:48:42.804Z,33
2018-08-09T10:49:42.543Z,33.02
2018-08-09T10:50:42.808Z,33.02
2018-08-09T10:51:43.047Z,33.07
2018-08-09T10:52:42.304Z,33.09
2018-08-09T10:53:42.819Z,33.02
2018-08-09T10:54:42.569Z,33.07
2018-08-09T10:55:42.701Z,33.04
2018-08-09T10:56:42.584Z,33.12
2018-08-09T10:57:42.595Z,33.01
2018-08-09T10:58:42.609Z,33.04
2018-08-09T10:59:42.878Z,33.11
2018-08-09T11:00:42.354Z,33.07
2018-08-09T11:01:42.380Z,33.07
2018-08-09T11:02:42.627Z,33.09
2018-08-09T11:03:42.632Z,33.12
2018-08-09T11:04:42.890Z,33.05
2018-08-09T11:05:42.650Z,33.11
2018-08-09T11:06:42.390Z,33.09
2018-08-09T11:07:42.928Z,33.07
2018-08-09T11:08:42.855Z,33.07
2018-08-09T11:09:42.422Z,33.23
2018-08-09T11:10:42.670Z,33.23
2018-08-09T11:11:42.694Z,33.39
2018-08-09T11:12:42.938Z,33.42
2018-08-09T11:13:42.954Z,33.46
2018-08-09T11:14:42.717Z,33.5
2018-08-09T11:15:42.983Z,33.52
2018-08-09T11:16:42.714Z,33.65
2018-08-09T11:17:42.725Z,33.65
2018-08-09T11:18:42.483Z,33.57
2018-08-09T11:19:42.479Z,33.53
2018-08-09T11:20:42.744Z,33.4
2018-08-09T11:21:42.748Z,33.34
2018-08-09T11:22:43.018Z,33.43
2018-08-09T11:23:43.190Z,33.37
2018-08-09T11:24:42.771Z,33.31
2018-08-09T11:25:42.777Z,33.36
2018-08-09T11:26:43.048Z,33.4
2018-08-09T11:27:43.047Z,33.34
2018-08-09T11:28:42.818Z,33.37
2018-08-09T11:29:42.816Z,33.37
2018-08-09T11:30:42.812Z,33.27
2018-08-09T11:31:42.559Z,33.17
2018-08-09T11:32:42.839Z,33.12
2018-08-09T11:33:42.833Z,33.2
2018-08-09T11:34:43.100Z,33.31
2018-08-09T11:35:42.855Z,33.24
2018-08-09T11:36:42.851Z,33.23
2018-08-09T11:37:42.859Z,33.2
2018-08-09T11:38:42.873Z,33.2
2018-08-09T11:39:42.667Z,33.08
2018-08-09T11:40:42.887Z,33.19
2018-08-09T11:41:42.640Z,33.27
2018-08-09T11:42:43.146Z,33.3
2018-08-09T11:43:43.153Z,33.34
2018-08-09T11:44:42.671Z,33.42
2018-08-09T11:45:42.915Z,33.4
2018-08-09T11:46:42.665Z,33.36
2018-08-09T11:47:43.207Z,33.39
2018-08-09T11:48:43.185Z,33.47
2018-08-09T11:49:43.200Z,33.52
2018-08-09T11:50:43.215Z,33.64
2018-08-09T11:51:42.949Z,33.59
2018-08-09T11:52:42.960Z,33.74
2018-08-09T11:53:42.962Z,33.77
2018-08-09T11:54:42.730Z,33.69
2018-08-09T11:55:42.730Z,33.64
2018-08-09T11:56:43.579Z,33.71
2018-08-09T11:57:42.731Z,33.81
2018-08-09T11:58:43.006Z,33.8
2018-08-09T11:59:43.270Z,33.86
2018-08-09T12:00:43.020Z,33.84
2018-08-09T12:01:43.492Z,33.86
2018-08-09T12:02:43.028Z,33.92
2018-08-09T12:03:43.287Z,33.92
2018-08-09T12:04:43.126Z,33.99
2018-08-09T12:05:43.350Z,33.99
2018-08-09T12:06:42.831Z,33.96
2018-08-09T12:07:43.332Z,33.87
2018-08-09T12:08:43.065Z,34.01
2018-08-09T12:09:43.071Z,34.08
2018-08-09T12:10:43.087Z,34.1
2018-08-09T12:11:43.356Z,34.03
2018-08-09T12:12:43.098Z,34.06
2018-08-09T12:13:43.177Z,33.95
2018-08-09T12:14:43.390Z,33.98
2018-08-09T12:15:43.116Z,34.01
2018-08-09T12:16:43.394Z,34.14
2018-08-09T12:17:43.144Z,34.18
2018-08-09T12:18:42.895Z,34.16
2018-08-09T12:19:43.142Z,34.17
2018-08-09T12:20:43.536Z,34.13
2018-08-09T12:21:43.201Z,34.1
2018-08-09T12:22:43.168Z,34.03
2018-08-09T12:23:43.422Z,33.95
2018-08-09T12:24:43.448Z,33.83
2018-08-09T12:25:43.203Z,33.77
2018-08-09T12:26:43.247Z,33.61
2018-08-09T12:27:43.248Z,33.67
2018-08-09T12:28:42.957Z,33.59
2018-08-09T12:29:43.209Z,33.5
2018-08-09T12:30:43.472Z,33.57
2018-08-09T12:31:43.262Z,33.53
2018-08-09T12:32:43.233Z,33.53
2018-08-09T12:33:43.241Z,33.71
2018-08-09T12:34:43.512Z,33.81
2018-08-09T12:35:43.516Z,33.92
2018-08-09T12:36:43.600Z,33.95
2018-08-09T12:37:43.530Z,34.1
2018-08-09T12:38:43.568Z,34.23
2018-08-09T12:39:43.303Z,34.32
2018-08-09T12:40:43.534Z,34.45
2018-08-09T12:41:43.289Z,34.5
2018-08-09T12:42:43.312Z,34.51
2018-08-09T12:43:43.571Z,34.54
2018-08-09T12:44:43.585Z,34.51
2018-08-09T12:45:43.662Z,34.51
2018-08-09T12:46:43.344Z,34.54
2018-08-09T12:47:43.593Z,34.51
2018-08-09T12:48:43.355Z,34.55
2018-08-09T12:49:43.366Z,34.62
2018-08-09T12:50:43.701Z,34.73
2018-08-09T12:51:43.362Z,34.62
2018-08-09T12:52:43.118Z,34.51
2018-08-09T12:53:43.128Z,34.58
2018-08-09T12:54:43.390Z,34.62
2018-08-09T12:55:43.134Z,34.6